Time;durP1;ratioP1;P1;durP2;ratioP2;P2;SDS_P1;SDS_P2;PMS_P1;PMS_P2;Temp;Humidity;BMP_temperature;BMP_pressure;BME280_temperature;BME280_humidity;BME280_pressure;Samples;Min_cycle;Max_cycle;Signal;HPM_P1;HPM_P2
2023/05/22 00:01:50;;;;;;;;;19.33;15.67;;;;;18.21;67.71;100876.84;6083388;23;45284;-85
2023/05/22 00:04:20;;;;;;;;;21.67;16.33;;;;;18.14;67.75;100885.00;6096137;23;47458;-84
2023/05/22 00:06:45;;;;;;;;;17.33;15.00;;;;;18.08;67.79;100878.84;6098137;23;45344;-84
2023/05/22 00:09:11;;;;;;;;;16.33;16.00;;;;;18.06;67.86;100875.28;6100611;23;45341;-83
2023/05/22 00:11:38;;;;;;;;;20.67;15.67;;;;;18.06;67.63;100873.47;6101207;23;45735;-83
2023/05/22 00:14:04;;;;;;;;;13.33;13.33;;;;;18.10;67.65;100864.44;6100420;23;47527;-84
2023/05/22 00:16:32;;;;;;;;;15.00;14.33;;;;;18.09;67.84;100865.34;6101764;23;45614;-85
2023/05/22 00:18:57;;;;;;;;;17.67;17.67;;;;;18.04;67.76;100867.22;6098289;23;45450;-84
2023/05/22 00:21:23;;;;;;;;;19.67;16.00;;;;;18.03;67.79;100869.94;6101269;23;44914;-83
2023/05/22 00:23:49;;;;;;;;;12.33;12.00;;;;;17.86;68.11;100870.19;6098514;23;47136;-83
2023/05/22 00:26:15;;;;;;;;;17.00;17.00;;;;;17.77;67.78;100864.00;6101493;23;45557;-84
2023/05/22 00:28:41;;;;;;;;;12.33;9.33;;;;;17.74;68.47;100868.50;6098733;23;45403;-84
2023/05/22 00:31:07;;;;;;;;;15.67;15.33;;;;;17.71;68.05;100871.22;6100069;23;45507;-84
2023/05/22 00:33:33;;;;;;;;;16.67;14.67;;;;;17.73;67.76;100870.31;6098761;23;47506;-83
2023/05/22 00:35:58;;;;;;;;;16.00;15.33;;;;;17.66;68.18;100873.09;6102570;23;45155;-84
2023/05/22 00:38:29;;;;;;;;;17.00;16.00;;;;;17.72;68.21;100873.91;6102258;23;45444;-84
2023/05/22 00:40:54;;;;;;;;;13.00;11.67;;;;;17.56;67.90;100880.41;6103158;23;45363;-83
2023/05/22 00:43:20;;;;;;;;;12.33;11.33;;;;;17.56;68.37;100883.09;6099426;23;45355;-84
2023/05/22 00:45:46;;;;;;;;;19.67;15.67;;;;;17.62;67.61;100884.81;6098172;23;45691;-84
2023/05/22 00:48:12;;;;;;;;;14.33;14.00;;;;;17.59;67.49;100878.56;6096373;23;44808;-84
2023/05/22 00:50:38;;;;;;;;;16.67;13.33;;;;;17.54;67.65;100879.53;6098656;23;45254;-83
2023/05/22 00:53:04;;;;;;;;;14.67;13.67;;;;;17.53;67.64;100875.03;6098936;23;46977;-83
2023/05/22 00:55:29;;;;;;;;;16.67;16.67;;;;;17.44;66.90;100870.69;6099466;23;45394;-83
2023/05/22 00:57:56;;;;;;;;;16.67;14.33;;;;;17.53;67.07;100865.19;6101612;23;45326;-84
2023/05/22 01:00:22;;;;;;;;;17.00;14.00;;;;;17.46;67.03;100876.03;6102212;23;45425;-83
2023/05/22 01:02:48;;;;;;;;;15.00;15.00;;;;;17.38;67.20;100866.25;6100369;23;45387;-84
2023/05/22 01:05:16;;;;;;;;;16.00;15.33;;;;;17.37;67.45;100875.25;6075114;23;45420;-84
2023/05/22 01:07:45;;;;;;;;;15.00;13.67;;;;;17.31;67.38;100866.34;6074658;23;45381;-84
2023/05/22 01:10:11;;;;;;;;;16.67;14.67;;;;;17.27;67.23;100860.13;6101605;23;45350;-84
2023/05/22 01:13:00;;;;;;;;;17.00;15.67;;;;;17.41;67.42;100865.34;6075721;23;48307;-83
2023/05/22 01:15:43;;;;;;;;;15.67;15.67;;;;;17.42;67.19;100872.50;6076358;23;45321;-83
2023/05/22 01:18:19;;;;;;;;;14.67;12.33;;;;;17.36;67.89;100869.88;6078117;23;44766;-83
2023/05/22 01:21:09;;;;;;;;;14.00;14.00;;;;;17.17;67.79;100871.91;6103833;23;45529;-84
2023/05/22 01:23:46;;;;;;;;;16.67;16.33;;;;;16.95;68.55;100866.75;6104232;23;45531;-83
2023/05/22 01:26:21;;;;;;;;;16.67;12.67;;;;;16.92;69.14;100855.13;6077620;23;45377;-84
2023/05/22 01:29:14;;;;;;;;;17.67;16.33;;;;;16.92;69.37;100866.75;6102710;23;45682;-83
2023/05/22 01:31:42;;;;;;;;;14.67;13.00;;;;;16.74;69.89;100857.09;6075864;23;45319;-83
2023/05/22 01:34:10;;;;;;;;;16.00;15.00;;;;;16.75;70.49;100863.34;6076670;23;47181;-84
2023/05/22 01:36:37;;;;;;;;;12.33;12.00;;;;;16.65;70.75;100862.53;6076381;23;45281;-84
2023/05/22 01:39:09;;;;;;;;;19.00;16.67;;;;;16.73;70.96;100859.78;6076845;23;44872;-84
2023/05/22 01:41:36;;;;;;;;;14.67;14.67;;;;;16.60;70.29;100859.88;6076854;23;44886;-84
2023/05/22 01:44:02;;;;;;;;;16.00;14.33;;;;;16.65;70.25;100861.63;6076764;23;46587;-84
2023/05/22 01:46:29;;;;;;;;;15.00;13.00;;;;;16.59;70.40;100851.84;6075019;23;45769;-84
2023/05/22 01:48:57;;;;;;;;;15.33;15.33;;;;;16.63;70.30;100858.97;6076010;23;45325;-83
2023/05/22 01:51:31;;;;;;;;;21.67;17.00;;;;;16.50;71.00;100863.56;6101349;23;45297;-83
2023/05/22 01:54:04;;;;;;;;;17.33;16.00;;;;;16.57;71.48;100856.34;6075624;23;47153;-84
2023/05/22 01:56:47;;;;;;;;;17.67;16.00;;;;;16.59;70.78;100858.09;6075102;23;45310;-83
2023/05/22 01:59:24;;;;;;;;;14.00;14.00;;;;;16.62;70.38;100850.91;6102405;23;45306;-83
2023/05/22 02:01:58;;;;;;;;;15.33;13.00;;;;;16.58;70.68;100856.31;6086206;23;45448;-83
2023/05/22 02:04:27;;;;;;;;;15.00;15.00;;;;;16.64;70.65;100854.47;6100272;23;47003;-84
2023/05/22 02:06:53;;;;;;;;;13.00;13.00;;;;;16.57;70.39;100857.22;6100776;23;45399;-84
2023/05/22 02:09:22;;;;;;;;;13.33;11.33;;;;;16.67;70.11;100857.16;6102285;23;45295;-84
2023/05/22 02:11:48;;;;;;;;;13.00;13.00;;;;;16.53;69.94;100858.16;6101882;23;45420;-84
2023/05/22 02:14:14;;;;;;;;;13.67;13.67;;;;;16.58;69.82;100853.63;6101611;23;45510;-84
2023/05/22 02:16:41;;;;;;;;;16.33;15.67;;;;;16.52;70.10;100845.66;6101649;23;45414;-84
2023/05/22 02:19:06;;;;;;;;;12.67;12.33;;;;;16.60;69.87;100861.66;6101960;23;44773;-83
2023/05/22 02:21:35;;;;;;;;;17.33;17.33;;;;;16.58;69.75;100840.22;6104691;23;45364;-83
2023/05/22 02:24:01;;;;;;;;;18.33;16.00;;;;;16.62;69.87;100858.97;6098502;23;45311;-84
2023/05/22 02:26:27;;;;;;;;;19.67;17.33;;;;;16.56;69.82;100858.13;6096389;23;45363;-83
2023/05/22 02:28:53;;;;;;;;;17.67;17.67;;;;;16.62;70.23;100851.78;6098617;23;44752;-83
2023/05/22 02:31:18;;;;;;;;;14.67;13.67;;;;;16.50;69.37;100846.53;6098726;23;45805;-83
2023/05/22 02:33:44;;;;;;;;;11.00;11.00;;;;;16.55;69.61;100858.13;6099884;23;46123;-83
2023/05/22 02:36:11;;;;;;;;;17.00;15.67;;;;;16.45;70.56;100854.63;6098402;23;45263;-83
2023/05/22 02:38:37;;;;;;;;;17.00;16.00;;;;;16.26;70.59;100843.16;6099781;23;45240;-83
2023/05/22 02:41:03;;;;;;;;;15.00;15.00;;;;;16.23;70.65;100847.66;6103370;23;45422;-83
2023/05/22 02:43:28;;;;;;;;;12.33;12.33;;;;;16.16;71.20;100850.41;6102146;23;46595;-83
2023/05/22 02:45:54;;;;;;;;;16.33;15.00;;;;;16.15;71.17;100845.91;6100271;23;45885;-84
2023/05/22 02:48:20;;;;;;;;;14.33;14.00;;;;;16.05;71.53;100849.56;6100812;23;44873;-84
2023/05/22 02:50:47;;;;;;;;;14.00;14.00;;;;;16.03;70.99;100848.69;6100344;23;45277;-86
2023/05/22 02:53:14;;;;;;;;;13.33;13.33;;;;;15.96;72.27;100837.13;6097747;23;47292;-83
2023/05/22 02:55:43;;;;;;;;;14.00;14.00;;;;;15.86;71.92;100839.88;6099046;23;45419;-84
2023/05/22 02:58:10;;;;;;;;;18.33;16.67;;;;;15.95;71.96;100851.41;6100158;23;45781;-83
2023/05/22 03:00:39;;;;;;;;;14.67;14.67;;;;;16.04;71.82;100849.56;6100673;23;45331;-83
2023/05/22 03:03:05;;;;;;;;;15.67;15.67;;;;;15.90;72.33;100849.69;6102255;23;45258;-83
2023/05/22 03:05:34;;;;;;;;;13.00;12.67;;;;;15.88;72.47;100859.53;6076374;23;45447;-83
2023/05/22 03:07:59;;;;;;;;;14.00;14.00;;;;;15.85;72.44;100852.38;6075970;23;45298;-84
2023/05/22 03:10:24;;;;;;;;;16.00;14.00;;;;;15.89;72.54;100863.97;6103642;23;45318;-82
2023/05/22 03:12:53;;;;;;;;;16.67;14.00;;;;;15.87;72.45;100852.38;6075730;23;46876;-83
2023/05/22 03:15:22;;;;;;;;;14.67;13.00;;;;;15.87;72.56;100855.03;6101285;23;45720;-83
2023/05/22 03:17:47;;;;;;;;;20.00;17.67;;;;;15.90;72.67;100852.38;6100670;23;44728;-83
2023/05/22 03:20:15;;;;;;;;;16.00;15.67;;;;;15.91;72.44;100863.06;6096058;23;45459;-85
2023/05/22 03:22:41;;;;;;;;;13.33;13.33;;;;;15.92;72.59;100858.63;6100979;23;45268;-84
2023/05/22 03:25:08;;;;;;;;;12.00;12.00;;;;;15.99;72.73;100865.69;6102963;23;45336;-84
2023/05/22 03:27:34;;;;;;;;;15.33;15.00;;;;;15.92;72.94;100851.44;6076538;23;45855;-82
2023/05/22 03:30:00;;;;;;;;;16.00;16.00;;;;;15.93;72.52;100857.69;6077649;23;45414;-83
2023/05/22 03:32:26;;;;;;;;;18.67;15.33;;;;;15.86;73.13;100854.16;6076881;23;46833;-84
2023/05/22 03:34:51;;;;;;;;;13.33;12.67;;;;;15.82;72.67;100852.41;6075909;23;45732;-84
2023/05/22 03:37:16;;;;;;;;;16.33;16.33;;;;;15.80;73.46;100855.09;6078356;23;45351;-84
2023/05/22 03:39:42;;;;;;;;;17.67;13.67;;;;;15.84;73.26;100855.09;6103495;23;44805;-85
2023/05/22 03:42:07;;;;;;;;;14.00;14.00;;;;;15.87;73.13;100855.03;6074716;23;47118;-85
2023/05/22 03:44:33;;;;;;;;;16.00;15.33;;;;;15.88;73.09;100856.84;6075440;23;45343;-85
2023/05/22 03:46:58;;;;;;;;;13.00;12.00;;;;;15.93;73.22;100849.66;6075602;23;45558;-85
2023/05/22 03:49:24;;;;;;;;;14.33;14.00;;;;;15.91;73.34;100846.09;6075032;23;45604;-85
2023/05/22 03:51:49;;;;;;;;;16.00;16.00;;;;;15.94;72.97;100848.75;6071146;23;46909;-84
2023/05/22 03:54:15;;;;;;;;;17.67;15.33;;;;;15.90;73.14;100850.56;6071826;23;45278;-83
2023/05/22 03:56:41;;;;;;;;;14.00;12.67;;;;;15.82;73.15;100852.41;6072990;23;45408;-84
2023/05/22 03:59:07;;;;;;;;;14.00;13.00;;;;;15.74;73.62;100851.56;6098533;23;45199;-84
2023/05/22 04:01:32;;;;;;;;;17.33;16.00;;;;;15.68;74.22;100851.56;6074970;23;48166;-84
2023/05/22 04:03:57;;;;;;;;;15.33;13.00;;;;;15.62;75.82;100857.84;6097241;23;45359;-84
2023/05/22 04:06:24;;;;;;;;;17.67;14.67;;;;;15.59;74.48;100849.78;6096175;23;45355;-83
2023/05/22 04:08:50;;;;;;;;;14.67;14.00;;;;;15.55;75.71;100864.09;6104174;23;45364;-85
2023/05/22 04:11:15;;;;;;;;;16.67;13.33;;;;;15.56;75.49;100872.16;6100121;23;47274;-83
2023/05/22 04:13:41;;;;;;;;;21.00;16.67;;;;;15.59;76.21;100882.88;6099305;23;45485;-83
2023/05/22 04:16:08;;;;;;;;;14.33;14.33;;;;;15.62;76.59;100873.91;6100973;23;45421;-84
2023/05/22 04:18:33;;;;;;;;;18.33;17.67;;;;;15.52;75.96;100874.84;6104031;23;45798;-84
2023/05/22 04:20:59;;;;;;;;;14.67;14.67;;;;;15.61;76.49;100869.44;6101620;23;45342;-83
2023/05/22 04:23:25;;;;;;;;;19.00;15.67;;;;;15.65;75.91;100870.31;6101296;23;45264;-83
2023/05/22 04:25:50;;;;;;;;;19.67;15.33;;;;;15.72;75.71;100862.28;6098829;23;45375;-84
2023/05/22 04:28:21;;;;;;;;;17.00;17.00;;;;;15.88;76.02;100862.22;6102038;23;45293;-84
2023/05/22 04:30:50;;;;;;;;;15.33;14.00;;;;;15.91;75.27;100867.53;6101208;23;45354;-84
2023/05/22 04:33:15;;;;;;;;;16.00;15.33;;;;;15.93;74.68;100868.41;6100207;23;45382;-84
2023/05/22 04:35:41;;;;;;;;;16.00;16.00;;;;;15.97;74.89;100867.50;6098034;23;45346;-84
2023/05/22 04:38:06;;;;;;;;;18.33;17.00;;;;;15.99;74.93;100871.06;6100265;23;45412;-84
2023/05/22 04:40:36;;;;;;;;;14.00;14.00;;;;;16.08;74.79;100872.78;6101344;23;45394;-84
2023/05/22 04:43:02;;;;;;;;;17.67;14.67;;;;;15.95;75.16;100871.97;6098775;23;45390;-84
2023/05/22 04:45:29;;;;;;;;;17.67;15.67;;;;;15.89;75.15;100870.22;6098246;23;45367;-84
2023/05/22 04:47:55;;;;;;;;;17.00;15.67;;;;;15.91;75.35;100878.28;6095186;23;45336;-83
2023/05/22 04:50:22;;;;;;;;;14.00;14.00;;;;;15.85;75.23;100884.56;6098125;23;45295;-84
2023/05/22 04:52:48;;;;;;;;;17.33;16.00;;;;;15.89;74.93;100893.47;6100990;23;45319;-84
2023/05/22 04:55:13;;;;;;;;;19.33;17.67;;;;;15.87;75.10;100896.16;6101859;23;45289;-84
2023/05/22 04:57:39;;;;;;;;;14.33;13.33;;;;;15.96;74.98;100900.59;6100829;23;45432;-83
2023/05/22 05:00:06;;;;;;;;;17.67;16.00;;;;;16.06;74.97;100902.34;6102876;23;46190;-83
2023/05/22 05:02:32;;;;;;;;;15.00;15.00;;;;;15.99;74.78;100897.88;6075796;23;45868;-83
2023/05/22 05:04:57;;;;;;;;;16.33;15.33;;;;;16.06;74.70;100902.34;6103286;23;44742;-83
2023/05/22 05:07:23;;;;;;;;;14.67;14.67;;;;;16.09;74.64;100896.94;6101952;23;45493;-83
2023/05/22 05:09:49;;;;;;;;;16.00;14.67;;;;;16.15;74.03;100902.25;6103758;23;45841;-84
2023/05/22 05:12:15;;;;;;;;;10.00;10.00;;;;;16.16;74.29;100906.75;6102382;23;44719;-84
2023/05/22 05:14:40;;;;;;;;;17.67;14.67;;;;;16.17;74.73;100897.78;6103866;23;45322;-83
2023/05/22 05:17:09;;;;;;;;;17.67;15.67;;;;;16.30;74.70;100881.59;6103008;23;45316;-84
2023/05/22 05:19:34;;;;;;;;;17.00;15.33;;;;;16.32;73.84;100886.06;6102782;23;46170;-84
2023/05/22 05:22:00;;;;;;;;;14.67;13.67;;;;;16.34;73.88;100883.34;6100279;23;45420;-83
2023/05/22 05:24:25;;;;;;;;;15.33;15.33;;;;;16.44;73.73;100892.22;6101330;23;45251;-83
2023/05/22 05:26:51;;;;;;;;;18.33;15.00;;;;;16.53;73.59;100898.41;6101330;23;45326;-84
2023/05/22 05:29:16;;;;;;;;;14.00;14.00;;;;;16.51;73.17;100889.47;6103990;23;45666;-84
2023/05/22 05:31:42;;;;;;;;;15.00;15.00;;;;;16.65;72.83;100896.56;6100781;23;45341;-84
2023/05/22 05:34:09;;;;;;;;;16.33;14.00;;;;;16.77;73.06;100885.69;6102525;23;45545;-83
2023/05/22 05:36:34;;;;;;;;;16.33;13.67;;;;;16.84;72.38;100884.75;6102861;23;45372;-84
2023/05/22 05:39:00;;;;;;;;;15.00;15.00;;;;;17.03;72.21;100895.31;6103455;23;46305;-84
2023/05/22 05:41:26;;;;;;;;;17.00;15.67;;;;;17.09;71.98;100884.53;6101362;23;45352;-85
2023/05/22 05:43:51;;;;;;;;;14.00;14.00;;;;;17.18;71.38;100889.78;6100995;23;45358;-84
2023/05/22 05:46:18;;;;;;;;;15.00;15.00;;;;;17.30;71.08;100886.97;6104435;23;45413;-85
2023/05/22 05:48:44;;;;;;;;;15.67;15.00;;;;;17.24;70.76;100878.09;6104699;23;45872;-83
2023/05/22 05:51:09;;;;;;;;;15.33;15.33;;;;;17.28;70.23;100893.28;6103641;23;45401;-84
2023/05/22 05:53:35;;;;;;;;;12.00;12.00;;;;;17.14;70.58;100883.56;6109096;23;45364;-87
2023/05/22 05:56:05;;;;;;;;;14.67;13.67;;;;;17.02;71.43;100890.84;6109329;23;44777;-85
2023/05/22 05:58:30;;;;;;;;;16.67;14.67;;;;;16.90;71.40;100889.19;6109969;23;45121;-85
2023/05/22 06:01:03;;;;;;;;;14.67;14.00;;;;;16.91;71.57;100878.44;6106999;23;45435;-85
2023/05/22 06:03:28;;;;;;;;;14.00;14.00;;;;;16.76;71.98;100878.53;6107567;23;44814;-85
2023/05/22 06:05:54;;;;;;;;;13.67;13.67;;;;;16.70;72.15;100870.53;6108961;23;45395;-85
2023/05/22 06:08:22;;;;;;;;;16.00;14.33;;;;;16.64;72.03;100867.91;6106708;23;46847;-85
2023/05/22 06:10:47;;;;;;;;;16.67;14.33;;;;;16.64;72.87;100870.59;6107125;23;45306;-85
2023/05/22 06:13:13;;;;;;;;;14.00;14.00;;;;;16.68;72.52;100877.72;6103561;23;45378;-83
2023/05/22 06:15:39;;;;;;;;;17.33;15.00;;;;;16.64;73.04;100876.84;6109251;23;45517;-86
2023/05/22 06:18:06;;;;;;;;;15.33;15.33;;;;;16.81;73.47;100879.44;6107173;23;45961;-86
2023/05/22 06:20:35;;;;;;;;;16.00;14.00;;;;;16.82;72.57;100873.13;6082201;23;45401;-85
2023/05/22 06:23:00;;;;;;;;;16.67;15.67;;;;;16.81;73.04;100884.78;6106377;23;45310;-85
2023/05/22 06:25:32;;;;;;;;;12.00;11.67;;;;;16.85;72.27;100894.59;6107888;23;45320;-85
2023/05/22 06:28:04;;;;;;;;;18.67;17.00;;;;;17.01;72.53;100900.72;6104146;23;45353;-86
2023/05/22 06:30:30;;;;;;;;;15.33;15.33;;;;;17.00;72.13;100896.25;6107337;23;45272;-85
2023/05/22 06:32:56;;;;;;;;;16.00;16.00;;;;;17.04;72.04;100894.44;6107019;23;45569;-84
2023/05/22 06:35:21;;;;;;;;;14.33;14.33;;;;;17.18;71.46;100895.16;6109004;23;44737;-85
2023/05/22 06:37:47;;;;;;;;;19.00;16.00;;;;;17.32;71.45;100898.59;6107097;23;47002;-85
2023/05/22 06:40:15;;;;;;;;;17.00;15.33;;;;;17.49;70.75;100892.13;6082561;23;45662;-85
2023/05/22 06:42:43;;;;;;;;;16.67;14.67;;;;;17.47;70.00;100904.69;6106387;23;45350;-85
2023/05/22 06:45:13;;;;;;;;;17.33;17.33;;;;;17.45;70.52;100909.19;6107184;23;45259;-85
2023/05/22 06:47:38;;;;;;;;;18.00;15.00;;;;;17.48;70.52;100909.19;6110894;23;47986;-85
2023/05/22 06:50:05;;;;;;;;;12.33;10.00;;;;;17.68;70.44;100911.63;6106300;23;45716;-85
2023/05/22 06:52:32;;;;;;;;;17.00;16.33;;;;;17.69;70.21;100902.63;6082171;23;45299;-86
2023/05/22 06:55:03;;;;;;;;;19.67;17.67;;;;;17.77;69.69;100904.34;6106609;23;45287;-86
2023/05/22 06:57:39;;;;;;;;;15.67;14.67;;;;;18.02;69.86;100906.72;6107031;23;45322;-86
2023/05/22 07:00:10;;;;;;;;;14.00;13.00;;;;;18.10;68.67;100907.50;6106194;23;45311;-84
2023/05/22 07:02:44;;;;;;;;;17.33;15.33;;;;;18.05;68.43;100886.94;6101934;23;45327;-85
2023/05/22 07:05:11;;;;;;;;;21.00;17.67;;;;;18.12;67.64;100881.47;6107817;23;45672;-86
2023/05/22 07:08:13;;;;;;;;;18.00;17.67;;;;;18.49;67.92;100901.53;6109589;23;47027;-86
2023/05/22 07:10:40;;;;;;;;;20.33;19.00;;;;;18.35;67.26;100909.81;6106923;23;45485;-85
2023/05/22 07:13:06;;;;;;;;;19.33;18.00;;;;;18.53;66.96;100911.34;6106306;23;44811;-85
2023/05/22 07:15:34;;;;;;;;;7.67;7.67;;;;;18.69;67.02;100896.72;6106547;23;45210;-85
2023/05/22 07:18:02;;;;;;;;;19.67;17.33;;;;;18.64;66.96;100876.13;6107093;23;46157;-84
2023/05/22 07:20:28;;;;;;;;;15.33;15.00;;;;;19.01;66.01;100910.56;6105169;23;45357;-85
2023/05/22 07:22:55;;;;;;;;;17.33;15.00;;;;;19.21;65.68;100918.28;6106442;23;45369;-84
2023/05/22 07:25:20;;;;;;;;;16.00;16.00;;;;;19.12;65.34;100909.44;6109986;23;45380;-84
2023/05/22 07:27:54;;;;;;;;;19.67;16.00;;;;;19.23;65.70;100928.13;6104969;23;46598;-84
2023/05/22 07:30:21;;;;;;;;;17.33;15.00;;;;;19.31;64.87;100923.50;6106847;23;45374;-84
2023/05/22 07:32:47;;;;;;;;;16.00;15.00;;;;;19.37;65.13;100925.19;6108777;23;45367;-83
2023/05/22 07:35:13;;;;;;;;;17.00;16.00;;;;;19.41;64.69;100924.22;6109003;23;45270;-85
2023/05/22 07:37:44;;;;;;;;;20.33;16.67;;;;;19.60;64.63;100922.00;6104961;23;45464;-84
2023/05/22 07:40:10;;;;;;;;;14.67;12.33;;;;;19.70;64.26;100929.00;6107008;23;45292;-83
2023/05/22 07:42:45;;;;;;;;;15.67;15.00;;;;;19.68;63.88;100903.84;6104902;23;45314;-85
2023/05/22 07:45:13;;;;;;;;;23.00;17.67;;;;;20.11;63.26;100929.06;6106580;23;45264;-86
2023/05/22 07:47:42;;;;;;;;;18.00;16.33;;;;;20.03;63.28;100921.13;6106497;23;46993;-86
2023/05/22 07:50:21;;;;;;;;;19.00;16.00;;;;;20.28;62.64;100931.38;6105898;23;45266;-86
2023/05/22 07:53:32;;;;;;;;;16.67;15.00;;;;;20.26;62.09;100935.91;6110421;23;45348;-85
2023/05/22 07:56:27;;;;;;;;;17.00;16.67;;;;;20.17;61.74;100935.19;6076322;23;44876;-85
2023/05/22 07:59:00;;;;;;;;;15.00;14.00;;;;;20.11;62.21;100926.34;6075765;23;45554;-85
2023/05/22 08:01:33;;;;;;;;;20.00;18.33;;;;;20.15;61.84;100933.47;6075737;23;45309;-85
2023/05/22 08:04:00;;;;;;;;;20.00;18.00;;;;;20.15;61.97;100931.66;6045675;23;45295;-85
2023/05/22 08:06:29;;;;;;;;;17.00;16.00;;;;;20.42;62.38;100915.75;6024470;23;45629;-85
2023/05/22 08:09:47;;;;;;;;;;;;;;;;;;;;;
2023/05/22 08:13:01;;;;;;;;;17.67;17.67;;;;;20.86;60.68;100932.69;5945417;23;44806;-85
2023/05/22 08:15:27;;;;;;;;;18.67;17.00;;;;;20.65;60.50;100917.91;5973442;23;44827;-83
2023/05/22 08:17:54;;;;;;;;;20.00;19.00;;;;;20.81;60.46;100902.19;6048928;23;45482;-84
2023/05/22 08:20:26;;;;;;;;;23.33;20.00;;;;;20.97;60.12;100927.91;6046663;23;46857;-86
2023/05/22 08:23:02;;;;;;;;;18.00;14.67;;;;;20.90;59.73;100923.56;6107592;23;45326;-85
2023/05/22 08:25:43;;;;;;;;;18.00;15.67;;;;;20.79;59.84;100914.88;6109196;23;45345;-85
2023/05/22 08:31:34;;;;;;;;;20.33;17.33;;;;;20.75;59.95;100907.75;6082442;23;45290;-84
2023/05/22 08:34:09;;;;;;;;;19.00;18.00;;;;;20.93;59.46;100925.34;6107691;23;45449;-84
2023/05/22 08:40:30;;;;;;;;;24.00;21.67;;;;;21.15;58.93;100952.69;5971589;23;44837;-84
2023/05/22 08:43:38;;;;;;;;;17.00;17.00;;;;;21.10;60.25;100944.69;5992534;23;45449;-86
2023/05/22 09:10:49;;;;;;;;;;;;;;;;;;;;;
2023/05/22 09:14:27;;;;;;;;;;;;;;;;;;;;;
2023/05/22 09:54:07;;;;;;;;;22.00;21.00;;;;;23.05;56.33;100942.53;6157320;23;45369;-85
2023/05/22 09:57:58;;;;;;;;;26.00;26.00;;;;;23.03;55.99;100947.13;6031755;23;44917;-87
2023/05/22 10:00:27;;;;;;;;;29.33;25.33;;;;;22.97;56.56;100938.22;6031518;23;45615;-86
2023/05/22 10:03:10;;;;;;;;;21.00;21.00;;;;;23.08;56.38;100939.69;6025978;23;45215;-87
2023/05/22 10:06:16;;;;;;;;;22.00;22.00;;;;;23.15;56.55;100957.53;6028363;23;45381;-86
2023/05/22 10:13:02;;;;;;;;;;;;;;;;;;;;;
2023/05/22 10:31:44;;;;;;;;;;;;;;;;;;;;;
2023/05/22 10:34:57;;;;;;;;;;;;;;;;;;;;;
2023/05/22 10:43:30;;;;;;;;;29.00;25.33;;;;;23.73;56.00;100935.53;6174881;22;44772;-86
2023/05/22 10:46:13;;;;;;;;;23.33;23.33;;;;;23.62;55.67;100941.38;6169721;23;44930;-86
2023/05/22 10:49:21;;;;;;;;;;;;;;;;;;;;;
2023/05/22 10:52:00;;;;;;;;;25.67;25.00;;;;;23.53;56.24;100919.97;6145926;23;69242;-82
2023/05/22 11:00:49;;;;;;;;;23.33;22.33;;;;;23.32;56.54;100905.38;5955025;23;45142;-86
2023/05/22 11:11:43;;;;;;;;;;;;;;;;;;;;;
2023/05/22 11:14:31;;;;;;;;;32.00;28.67;;;;;23.24;56.81;100899.34;5949670;23;68317;-88
2023/05/22 11:17:01;;;;;;;;;29.33;28.67;;;;;23.25;56.83;100923.72;5972620;23;45370;-85
2023/05/22 11:40:49;;;;;;;;;31.67;29.67;;;;;23.66;55.89;100867.00;6142149;22;45548;-87
2023/05/22 11:43:35;;;;;;;;;25.00;21.33;;;;;23.99;55.71;100895.66;6145490;23;45974;-85
2023/05/22 11:46:13;;;;;;;;;25.33;24.67;;;;;24.28;55.30;100913.50;6125415;23;45286;-86
2023/05/22 11:48:41;;;;;;;;;25.00;22.67;;;;;24.35;55.55;100910.47;6144748;23;44847;-85
2023/05/22 11:51:26;;;;;;;;;30.00;27.33;;;;;24.57;54.68;100906.06;6150157;23;47082;-87
2023/05/22 11:54:34;;;;;;;;;30.33;27.33;;;;;24.52;54.46;100871.78;6152194;23;44773;-85
2023/05/22 11:57:17;;;;;;;;;26.00;23.67;;;;;24.73;53.83;100899.91;6153620;22;44687;-86
2023/05/22 11:59:58;;;;;;;;;30.67;27.00;;;;;24.85;54.30;100890.34;6132535;23;45207;-85
2023/05/22 12:05:41;;;;;;;;;24.33;24.00;;;;;25.11;52.15;100891.03;6022967;23;45294;-85
2023/05/22 12:23:02;;;;;;;;;23.00;23.00;;;;;25.75;49.74;100896.31;6193384;22;45021;-84
2023/05/22 12:26:08;;;;;;;;;29.67;26.00;;;;;25.92;49.68;100891.94;6200931;22;45304;-86
2023/05/22 12:36:04;;;;;;;;;26.67;26.33;;;;;26.04;49.43;100895.94;6020887;23;45164;-86
2023/05/22 12:39:15;;;;;;;;;28.33;26.33;;;;;26.03;49.03;100888.69;6000929;23;46908;-86
2023/05/22 12:42:03;;;;;;;;;25.00;24.67;;;;;26.07;49.25;100869.38;6021685;23;44939;-84
2023/05/22 12:44:31;;;;;;;;;27.00;23.33;;;;;26.03;48.57;100865.03;5994947;23;44774;-84
2023/05/22 12:47:17;;;;;;;;;28.67;28.67;;;;;26.29;48.24;100873.78;6021931;23;44701;-85
2023/05/22 12:50:21;;;;;;;;;23.67;22.67;;;;;26.39;49.03;100893.31;6023479;23;47153;-86
2023/05/22 13:06:14;;;;;;;;;24.33;24.33;;;;;26.64;49.02;100895.72;6144606;22;45677;-85
2023/05/22 13:09:33;;;;;;;;;19.00;19.00;;;;;26.92;48.38;100890.63;6025458;23;45547;-88
2023/05/22 13:15:55;;;;;;;;;25.00;24.67;;;;;26.51;47.00;100879.94;6082330;23;45295;-85
2023/05/22 13:31:17;;;;;;;;;21.00;21.00;;;;;26.58;48.03;100864.16;6150747;22;45842;-86
2023/05/22 13:34:25;;;;;;;;;;;;;;;;;;;;;
2023/05/22 14:05:55;;;;;;;;;27.33;26.33;;;;;28.06;46.92;100880.91;6138193;22;47141;-86
2023/05/22 14:08:51;;;;;;;;;;;;;;;;;;;;;
2023/05/22 14:12:01;;;;;;;;;25.00;23.00;;;;;27.28;47.32;100878.75;5951699;23;72570;-85
2023/05/22 14:14:48;;;;;;;;;30.33;27.33;;;;;27.02;47.90;100901.06;6000234;23;44669;-86
2023/05/22 14:21:17;;;;;;;;;25.00;23.67;;;;;26.24;49.04;100881.28;6075059;22;47502;-84
2023/05/22 15:38:14;;;;;;;;;;;;;;;;;;;;;
2023/05/22 16:08:13;;;;;;;;;22.33;22.33;;;;;26.03;48.06;100869.63;6168528;22;45880;-85
2023/05/22 16:10:51;;;;;;;;;23.33;22.67;;;;;25.94;48.70;100884.56;6166596;23;45310;-83
2023/05/22 16:13:31;;;;;;;;;23.67;22.67;;;;;25.99;49.23;100887.94;6169507;22;45322;-85
2023/05/22 16:15:57;;;;;;;;;27.00;25.33;;;;;25.77;49.33;100838.13;6171070;22;44957;-84
2023/05/22 16:18:24;;;;;;;;;23.33;22.67;;;;;26.02;49.38;100874.19;6139373;23;48274;-85
2023/05/22 16:20:56;;;;;;;;;23.33;21.67;;;;;26.05;48.77;100882.19;6166626;22;44728;-84
2023/05/22 16:23:22;;;;;;;;;27.33;27.00;;;;;25.79;49.73;100888.84;6138702;23;45432;-84
2023/05/22 16:26:07;;;;;;;;;23.33;23.33;;;;;25.78;49.42;100861.72;6140499;23;45311;-87
2023/05/22 16:28:33;;;;;;;;;26.00;26.00;;;;;25.62;49.66;100869.72;6122680;23;46989;-85
2023/05/22 16:31:00;;;;;;;;;26.00;26.00;;;;;25.86;49.15;100884.91;6111354;23;45375;-86
2023/05/22 16:33:25;;;;;;;;;24.67;23.67;;;;;25.66;49.51;100898.56;6110862;23;45228;-85
2023/05/22 16:35:53;;;;;;;;;21.00;19.33;;;;;25.50;49.82;100882.06;6141270;23;45196;-85
2023/05/22 16:38:19;;;;;;;;;26.00;24.00;;;;;25.22;49.84;100864.25;6115036;23;48293;-85
2023/05/22 16:40:48;;;;;;;;;26.00;26.00;;;;;25.00;50.45;100869.72;6114860;23;45570;-84
2023/05/22 16:43:13;;;;;;;;;25.67;24.33;;;;;24.82;50.61;100882.28;6115054;23;45380;-83
2023/05/22 16:45:49;;;;;;;;;24.67;22.67;;;;;24.68;50.80;100898.31;6140853;23;45310;-85
2023/05/22 16:48:18;;;;;;;;;23.33;23.33;;;;;24.36;51.53;100885.09;6138231;23;47136;-85
2023/05/22 16:50:45;;;;;;;;;25.00;25.00;;;;;24.16;51.97;100898.59;6139416;23;45681;-86
2023/05/22 16:53:12;;;;;;;;;28.00;27.00;;;;;24.08;52.71;100901.63;6137746;23;44958;-85
2023/05/22 16:55:40;;;;;;;;;29.00;26.33;;;;;24.09;52.13;100908.81;6135561;23;45320;-85
2023/05/22 16:58:07;;;;;;;;;28.67;26.00;;;;;23.94;52.63;100904.00;6112767;23;46893;-85
2023/05/22 17:00:35;;;;;;;;;27.33;26.33;;;;;23.83;52.95;100901.69;6111896;23;45252;-85
2023/05/22 17:03:01;;;;;;;;;25.67;25.33;;;;;23.76;53.01;100905.56;6139081;23;45273;-86
2023/05/22 17:05:27;;;;;;;;;26.00;26.00;;;;;23.64;53.60;100923.19;6137111;23;45562;-86
2023/05/22 17:07:54;;;;;;;;;26.33;26.33;;;;;23.59;53.62;100908.88;6129013;23;46914;-85